Time;durP1;ratioP1;P1;durP2;ratioP2;P2;SDS_P1;SDS_P2;PMS_P1;PMS_P2;Temp;Humidity;BMP_temperature;BMP_pressure;BME280_temperature;BME280_humidity;BME280_pressure;Samples;Min_cycle;Max_cycle;Signal;HPM_P1;HPM_P2
2022/09/14 00:00:47;;;;;;;;;;;;;;;17.88;56.25;99694.97;5099379;28;19911;-67
2022/09/14 00:03:13;;;;;;;;;;;;;;;17.92;56.41;99694.31;5099431;28;19916;-67
2022/09/14 00:05:38;;;;;;;;;;;;;;;17.74;56.78;99697.66;5099674;28;20114;-67
2022/09/14 00:08:03;;;;;;;;;;;;;;;17.81;56.54;99692.31;5098979;28;19973;-67
2022/09/14 00:10:29;;;;;;;;;;;;;;;17.96;55.80;99689.38;5100290;28;19912;-67
2022/09/14 00:12:54;;;;;;;;;;;;;;;18.08;55.44;99693.03;5098988;28;19923;-67
2022/09/14 00:15:20;;;;;;;;;;;;;;;18.03;55.54;99690.16;5099388;28;19951;-67
2022/09/14 00:17:45;;;;;;;;;;;;;;;18.07;55.54;99692.22;5099609;28;20156;-67
2022/09/14 00:20:10;;;;;;;;;;;;;;;18.13;55.29;99693.22;5099027;28;19911;-67
2022/09/14 00:22:36;;;;;;;;;;;;;;;18.13;55.21;99701.25;5099923;28;19912;-67
2022/09/14 00:25:01;;;;;;;;;;;;;;;18.05;55.49;99705.00;5080445;28;19916;-68
2022/09/14 00:27:26;;;;;;;;;;;;;;;18.07;55.37;99700.25;5098457;28;19994;-67
2022/09/14 00:29:52;;;;;;;;;;;;;;;18.07;55.58;99705.63;5081134;28;19981;-67
2022/09/14 00:32:17;;;;;;;;;;;;;;;18.07;55.33;99699.44;5098865;28;19979;-67
2022/09/14 00:34:43;;;;;;;;;;;;;;;18.11;55.16;99693.44;5100127;28;19964;-67
2022/09/14 00:37:09;;;;;;;;;;;;;;;17.98;55.60;99700.69;5099276;28;19924;-67
2022/09/14 00:39:35;;;;;;;;;;;;;;;18.13;55.20;99696.72;5098668;28;19923;-67
2022/09/14 00:42:00;;;;;;;;;;;;;;;18.22;54.66;99702.66;5099609;28;19924;-67
2022/09/14 00:44:26;;;;;;;;;;;;;;;17.92;55.37;99705.03;5098022;28;20014;-67
2022/09/14 00:46:53;;;;;;;;;;;;;;;17.71;56.37;99706.13;5095987;28;19911;-68
2022/09/14 00:49:23;;;;;;;;;;;;;;;17.64;56.92;99710.59;5099523;28;19969;-67
2022/09/14 00:52:09;;;;;;;;;;;;;;;17.70;56.78;99707.16;5098488;28;20156;-67
2022/09/14 00:54:38;;;;;;;;;;;;;;;17.80;56.38;99709.41;5097412;28;19928;-67
2022/09/14 00:57:03;;;;;;;;;;;;;;;17.83;56.62;99706.31;5098616;28;20039;-67
2022/09/14 00:59:31;;;;;;;;;;;;;;;17.88;57.01;99713.72;5098724;28;20114;-67
2022/09/14 01:01:56;;;;;;;;;;;;;;;17.89;56.60;99715.34;5098449;28;19912;-67
2022/09/14 01:04:23;;;;;;;;;;;;;;;17.97;56.51;99715.94;5098216;28;19920;-67
2022/09/14 01:07:07;;;;;;;;;;;;;;;18.01;56.07;99713.69;5099436;28;19912;-67
2022/09/14 01:09:32;;;;;;;;;;;;;;;17.89;55.69;99708.16;5099368;28;20132;-67
2022/09/14 01:12:17;;;;;;;;;;;;;;;17.69;56.59;99710.03;5098202;28;21216;-67
2022/09/14 01:15:03;;;;;;;;;;;;;;;17.65;56.76;99706.06;5098305;28;19924;-67
2022/09/14 01:17:40;;;;;;;;;;;;;;;17.63;56.80;99710.81;5098798;28;19924;-67
2022/09/14 01:20:16;;;;;;;;;;;;;;;17.55;56.92;99707.31;5098187;28;19924;-67
2022/09/14 01:22:47;;;;;;;;;;;;;;;17.60;57.01;99711.22;5098081;28;19926;-67
2022/09/14 01:25:31;;;;;;;;;;;;;;;17.53;57.07;99711.25;5097603;28;19916;-67
2022/09/14 01:28:00;;;;;;;;;;;;;;;17.41;57.27;99705.69;5100970;28;19908;-67
2022/09/14 01:30:28;;;;;;;;;;;;;;;17.35;57.80;99708.38;5097986;28;19912;-67
2022/09/14 01:32:58;;;;;;;;;;;;;;;17.36;57.60;99702.81;5099014;28;19927;-68
2022/09/14 01:35:28;;;;;;;;;;;;;;;17.37;58.02;99709.00;5097931;28;19958;-68
2022/09/14 01:37:57;;;;;;;;;;;;;;;17.15;57.10;99705.69;5097693;28;19919;-68
2022/09/14 01:40:33;;;;;;;;;;;;;;;16.79;58.62;99706.91;5094908;28;20205;-68
2022/09/14 01:43:19;;;;;;;;;;;;;;;16.48;60.31;99704.72;5102344;28;19957;-68
2022/09/14 01:45:46;;;;;;;;;;;;;;;16.39;60.61;99710.44;5061332;28;19919;-68
2022/09/14 01:48:14;;;;;;;;;;;;;;;16.39;60.89;99713.94;5102551;28;19938;-68
2022/09/14 01:50:42;;;;;;;;;;;;;;;16.44;60.81;99724.84;5101711;28;19916;-68
2022/09/14 01:53:11;;;;;;;;;;;;;;;16.59;60.45;99716.66;5102845;28;19922;-68
2022/09/14 01:55:42;;;;;;;;;;;;;;;16.64;60.73;99719.56;5102555;28;19919;-68
2022/09/14 01:58:34;;;;;;;;;;;;;;;16.71;60.57;99711.63;5101727;28;19916;-68
2022/09/14 02:01:01;;;;;;;;;;;;;;;16.85;59.49;99711.44;5098313;28;19943;-68
2022/09/14 02:03:38;;;;;;;;;;;;;;;16.83;58.88;99710.81;5103023;28;19915;-68
2022/09/14 02:06:07;;;;;;;;;;;;;;;16.74;59.05;99711.22;5102102;28;19915;-68
2022/09/14 02:08:33;;;;;;;;;;;;;;;16.40;59.87;99717.44;5098493;28;19923;-68
2022/09/14 02:10:59;;;;;;;;;;;;;;;16.29;60.61;99721.50;5102273;28;20114;-68
2022/09/14 02:13:25;;;;;;;;;;;;;;;16.24;61.53;99719.41;5101091;28;19922;-68
2022/09/14 02:15:50;;;;;;;;;;;;;;;16.33;61.22;99719.25;5102410;28;19949;-68
2022/09/14 02:18:16;;;;;;;;;;;;;;;16.40;61.65;99728.94;5101073;28;20281;-68
2022/09/14 02:20:41;;;;;;;;;;;;;;;16.51;61.23;99723.00;5101600;28;20243;-68
2022/09/14 02:23:07;;;;;;;;;;;;;;;16.60;61.24;99718.31;5102256;28;20121;-68
2022/09/14 02:25:34;;;;;;;;;;;;;;;16.58;59.92;99723.84;5100735;28;19916;-68
2022/09/14 02:27:59;;;;;;;;;;;;;;;16.55;60.05;99726.94;5101887;28;19919;-68
2022/09/14 02:30:25;;;;;;;;;;;;;;;16.48;60.71;99730.59;5100894;28;19919;-68
2022/09/14 02:33:02;;;;;;;;;;;;;;;16.51;60.68;99725.69;5101177;28;20136;-68
2022/09/14 02:35:34;;;;;;;;;;;;;;;16.43;60.93;99733.06;5098213;28;19949;-68
2022/09/14 02:38:00;;;;;;;;;;;;;;;16.49;60.45;99721.56;5083949;28;19912;-68
2022/09/14 02:40:25;;;;;;;;;;;;;;;16.47;59.62;99720.94;5100537;28;20237;-68
2022/09/14 02:43:15;;;;;;;;;;;;;;;16.45;60.72;99731.00;5101222;28;19912;-68
2022/09/14 02:46:04;;;;;;;;;;;;;;;16.52;59.89;99738.03;5100908;28;19950;-68
2022/09/14 02:48:32;;;;;;;;;;;;;;;16.57;60.55;99734.75;5099776;28;20136;-68
2022/09/14 02:51:15;;;;;;;;;;;;;;;16.67;58.37;99740.59;5101347;28;19912;-68
2022/09/14 02:53:41;;;;;;;;;;;;;;;16.61;60.30;99736.81;5097815;28;19939;-68
2022/09/14 02:56:07;;;;;;;;;;;;;;;16.68;58.67;99738.75;5103519;28;20194;-68
2022/09/14 02:58:37;;;;;;;;;;;;;;;16.64;58.33;99740.13;5104055;28;19928;-68
2022/09/14 03:01:03;;;;;;;;;;;;;;;16.66;58.67;99738.97;5101414;28;19908;-68
2022/09/14 03:03:29;;;;;;;;;;;;;;;16.58;58.96;99733.72;5100600;28;20239;-67
2022/09/14 03:05:57;;;;;;;;;;;;;;;16.65;59.14;99734.63;5101687;28;19923;-68
2022/09/14 03:08:24;;;;;;;;;;;;;;;16.80;58.68;99737.97;5100256;28;20173;-68
2022/09/14 03:10:49;;;;;;;;;;;;;;;16.84;58.99;99738.38;5098368;28;19949;-68
2022/09/14 03:13:14;;;;;;;;;;;;;;;16.91;58.67;99729.34;5100590;28;19943;-68
2022/09/14 03:15:40;;;;;;;;;;;;;;;16.98;58.63;99733.88;5100176;28;19912;-68
2022/09/14 03:18:06;;;;;;;;;;;;;;;16.98;58.54;99731.19;5101061;28;19924;-68
2022/09/14 03:20:32;;;;;;;;;;;;;;;16.98;58.57;99739.22;5100098;28;20204;-68
2022/09/14 03:22:58;;;;;;;;;;;;;;;17.09;58.00;99733.28;5082317;28;19939;-68
2022/09/14 03:25:23;;;;;;;;;;;;;;;17.10;57.41;99727.72;5103639;28;20129;-68
2022/09/14 03:27:49;;;;;;;;;;;;;;;17.25;56.78;99730.19;5103008;28;19908;-68
2022/09/14 03:30:15;;;;;;;;;;;;;;;17.34;56.65;99736.16;5100590;28;19919;-68
2022/09/14 03:32:40;;;;;;;;;;;;;;;17.27;56.75;99732.66;5100710;28;20168;-68
2022/09/14 03:35:06;;;;;;;;;;;;;;;17.37;56.47;99741.09;5099396;28;19985;-68
2022/09/14 03:37:31;;;;;;;;;;;;;;;17.31;56.43;99737.41;5100714;28;20133;-68
2022/09/14 03:39:56;;;;;;;;;;;;;;;17.35;56.43;99732.47;5102873;28;20159;-68
2022/09/14 03:42:22;;;;;;;;;;;;;;;17.24;56.68;99736.56;5101931;28;19942;-68
2022/09/14 03:44:47;;;;;;;;;;;;;;;17.11;57.26;99739.25;5099914;28;20127;-68
2022/09/14 03:47:12;;;;;;;;;;;;;;;17.23;57.24;99743.78;5100701;28;19920;-68
2022/09/14 03:49:38;;;;;;;;;;;;;;;17.24;57.73;99742.75;5099712;28;19916;-68
2022/09/14 03:52:03;;;;;;;;;;;;;;;17.22;57.58;99738.63;5100996;28;19969;-68
2022/09/14 03:54:28;;;;;;;;;;;;;;;17.17;57.74;99739.25;5099458;28;20457;-68
2022/09/14 03:56:54;;;;;;;;;;;;;;;17.11;57.46;99741.91;5099892;28;20194;-68
2022/09/14 03:59:20;;;;;;;;;;;;;;;16.91;58.20;99742.72;5081886;28;20099;-68
2022/09/14 04:01:46;;;;;;;;;;;;;;;16.80;58.42;99740.63;5099643;28;20099;-68
2022/09/14 04:04:11;;;;;;;;;;;;;;;16.77;58.72;99737.53;5100046;28;19916;-68
2022/09/14 04:06:36;;;;;;;;;;;;;;;16.83;59.10;99736.72;5098678;28;19912;-68
2022/09/14 04:09:02;;;;;;;;;;;;;;;16.89;59.08;99741.28;5101134;28;19916;-68
2022/09/14 04:11:30;;;;;;;;;;;;;;;16.90;59.19;99738.41;5102214;28;19996;-68
2022/09/14 04:13:59;;;;;;;;;;;;;;;17.01;58.58;99745.00;5100348;28;19916;-68
2022/09/14 04:16:24;;;;;;;;;;;;;;;17.00;58.84;99737.19;5098861;28;19922;-68
2022/09/14 04:18:49;;;;;;;;;;;;;;;16.95;59.05;99736.97;5099828;28;19986;-68
2022/09/14 04:21:16;;;;;;;;;;;;;;;16.67;59.92;99734.44;5098977;28;19920;-68
2022/09/14 04:23:42;;;;;;;;;;;;;;;16.75;59.98;99731.56;5098927;28;19916;-68
2022/09/14 04:26:11;;;;;;;;;;;;;;;16.97;59.35;99737.59;5099559;28;20268;-67
2022/09/14 04:28:36;;;;;;;;;;;;;;;16.92;59.41;99732.84;5101489;28;20086;-68
2022/09/14 04:31:02;;;;;;;;;;;;;;;17.01;59.00;99736.16;5100493;28;20193;-68
2022/09/14 04:33:33;;;;;;;;;;;;;;;17.00;58.76;99747.88;5099551;28;19923;-68
2022/09/14 04:36:00;;;;;;;;;;;;;;;16.98;59.53;99737.38;5099468;28;19919;-68
2022/09/14 04:38:26;;;;;;;;;;;;;;;17.08;59.07;99745.81;5098555;28;19916;-68
2022/09/14 04:40:51;;;;;;;;;;;;;;;17.01;59.57;99746.84;5099026;28;19919;-68
2022/09/14 04:43:16;;;;;;;;;;;;;;;17.31;59.81;99748.09;5099048;28;19983;-68
2022/09/14 04:45:42;;;;;;;;;;;;;;;17.16;61.03;99745.63;5098753;28;19919;-68
2022/09/14 04:48:07;;;;;;;;;;;;;;;16.86;61.32;99747.84;5099341;28;19988;-68
2022/09/14 04:50:32;;;;;;;;;;;;;;;16.67;63.46;99748.63;5098590;28;20201;-68
2022/09/14 04:52:58;;;;;;;;;;;;;;;16.72;63.71;99750.69;5098783;28;19912;-68
2022/09/14 04:55:23;;;;;;;;;;;;;;;16.77;64.21;99751.72;5099012;28;19983;-68
2022/09/14 04:57:49;;;;;;;;;;;;;;;16.87;62.49;99757.53;5098370;28;19957;-68
2022/09/14 05:00:15;;;;;;;;;;;;;;;16.96;62.58;99755.47;5101661;28;19912;-68
2022/09/14 05:02:41;;;;;;;;;;;;;;;17.08;62.18;99759.19;5101585;28;20029;-68
2022/09/14 05:05:06;;;;;;;;;;;;;;;17.21;62.78;99763.75;5098807;28;19916;-68
2022/09/14 05:07:32;;;;;;;;;;;;;;;17.41;61.90;99761.09;5098932;28;19991;-68
2022/09/14 05:09:57;;;;;;;;;;;;;;;17.39;62.31;99761.28;5100469;28;20101;-68
2022/09/14 05:12:22;;;;;;;;;;;;;;;17.43;61.35;99759.84;5101385;28;20117;-68
2022/09/14 05:14:48;;;;;;;;;;;;;;;17.51;61.66;99759.63;5099613;28;20228;-68
2022/09/14 05:17:13;;;;;;;;;;;;;;;17.54;61.42;99763.75;5080641;28;20156;-68
2022/09/14 05:19:38;;;;;;;;;;;;;;;17.63;61.03;99761.69;5099250;28;19934;-68
2022/09/14 05:22:04;;;;;;;;;;;;;;;17.89;59.92;99759.03;5098403;28;19920;-68
2022/09/14 05:24:29;;;;;;;;;;;;;;;18.26;58.30;99754.00;5099044;28;19924;-68
2022/09/14 05:26:54;;;;;;;;;;;;;;;18.59;56.87;99746.63;5097898;28;20124;-68
2022/09/14 05:29:19;;;;;;;;;;;;;;;18.99;55.84;99751.84;5098639;28;20157;-68
2022/09/14 05:31:45;;;;;;;;;;;;;;;19.16;54.43;99754.81;5082275;28;20173;-68
2022/09/14 05:34:11;;;;;;;;;;;;;;;19.49;53.24;99752.69;5100383;28;20159;-68
2022/09/14 05:36:36;;;;;;;;;;;;;;;19.81;51.91;99755.34;5099854;28;20133;-68
2022/09/14 05:39:02;;;;;;;;;;;;;;;19.84;51.13;99755.72;5098914;28;19916;-68
2022/09/14 05:41:27;;;;;;;;;;;;;;;20.16;50.19;99763.66;5097750;28;19920;-68
2022/09/14 05:43:52;;;;;;;;;;;;;;;20.22;49.61;99765.47;5098098;28;19920;-68
2022/09/14 05:46:21;;;;;;;;;;;;;;;20.46;49.38;99766.47;5099036;28;19923;-68
2022/09/14 05:48:47;;;;;;;;;;;;;;;20.78;48.09;99762.50;5097940;28;19916;-68
2022/09/14 05:51:15;;;;;;;;;;;;;;;20.95;47.26;99768.09;5097957;28;20201;-68
2022/09/14 05:53:40;;;;;;;;;;;;;;;21.00;47.20;99761.00;5098466;28;19935;-68
2022/09/14 05:56:07;;;;;;;;;;;;;;;21.21;46.73;99770.41;5097715;28;19912;-68
2022/09/14 05:58:33;;;;;;;;;;;;;;;21.25;46.13;99773.50;5095542;28;19915;-68
2022/09/14 06:01:04;;;;;;;;;;;;;;;21.33;46.60;99773.16;5098211;28;19919;-68
2022/09/14 06:03:30;;;;;;;;;;;;;;;21.60;45.56;99779.75;5099873;28;19931;-69
2022/09/14 06:05:56;;;;;;;;;;;;;;;21.73;45.30;99783.28;5101048;28;20102;-68
2022/09/14 06:08:22;;;;;;;;;;;;;;;22.11;44.82;99789.06;5098336;28;19916;-68
2022/09/14 06:10:47;;;;;;;;;;;;;;;22.35;44.49;99781.75;5097331;28;19915;-69
2022/09/14 06:13:13;;;;;;;;;;;;;;;22.60;43.58;99786.84;5097375;28;19915;-69
2022/09/14 06:15:38;;;;;;;;;;;;;;;22.67;43.01;99784.03;5098738;28;19911;-68
2022/09/14 06:18:03;;;;;;;;;;;;;;;22.81;42.86;99788.94;5079483;28;19927;-68
2022/09/14 06:20:29;;;;;;;;;;;;;;;22.77;43.23;99790.44;5098609;28;19908;-69
2022/09/14 06:22:54;;;;;;;;;;;;;;;23.09;42.36;99792.72;5097608;28;19915;-68
2022/09/14 06:25:19;;;;;;;;;;;;;;;23.42;41.59;99789.22;5097597;28;19957;-68
2022/09/14 06:27:45;;;;;;;;;;;;;;;23.42;41.47;99791.94;5098230;28;19912;-69
2022/09/14 06:30:10;;;;;;;;;;;;;;;23.48;41.49;99797.19;5101176;28;19949;-68
2022/09/14 06:32:35;;;;;;;;;;;;;;;23.56;41.65;99787.88;5102172;28;19957;-69
2022/09/14 06:35:02;;;;;;;;;;;;;;;23.53;41.54;99791.84;5103444;28;19916;-68
2022/09/14 06:37:28;;;;;;;;;;;;;;;23.32;41.84;99795.28;5104314;28;19907;-69
2022/09/14 06:39:53;;;;;;;;;;;;;;;23.21;41.64;99798.88;5100899;28;19954;-68
2022/09/14 06:42:18;;;;;;;;;;;;;;;23.54;41.24;99800.78;5101887;28;20013;-68
2022/09/14 06:44:45;;;;;;;;;;;;;;;23.75;40.34;99805.47;5100845;28;19915;-68
2022/09/14 06:47:11;;;;;;;;;;;;;;;24.14;39.91;99797.44;5101826;28;19918;-68
2022/09/14 06:49:36;;;;;;;;;;;;;;;24.32;39.55;99799.88;5100935;28;19982;-68
2022/09/14 06:52:01;;;;;;;;;;;;;;;24.37;39.12;99794.53;5104077;28;19915;-69
2022/09/14 06:54:27;;;;;;;;;;;;;;;24.60;38.23;99796.16;5102969;28;19916;-69
2022/09/14 06:56:52;;;;;;;;;;;;;;;24.77;38.17;99798.78;5101839;28;19927;-69
2022/09/14 06:59:18;;;;;;;;;;;;;;;24.79;38.05;99802.06;5100355;28;19923;-68
2022/09/14 07:01:49;;;;;;;;;;;;;;;25.01;37.88;99807.50;5103560;28;20121;-68
2022/09/14 07:04:15;;;;;;;;;;;;;;;24.91;37.73;99800.03;5106944;28;19927;-69
2022/09/14 07:06:42;;;;;;;;;;;;;;;25.29;37.27;99807.25;5111102;28;20147;-69
2022/09/14 07:09:07;;;;;;;;;;;;;;;25.44;36.51;99804.69;5116605;28;19916;-69
2022/09/14 07:11:33;;;;;;;;;;;;;;;25.25;36.27;99806.13;5117554;28;19919;-69
2022/09/14 07:13:58;;;;;;;;;;;;;;;25.43;35.82;99804.94;5123205;28;20261;-69
2022/09/14 07:16:24;;;;;;;;;;;;;;;25.00;36.54;99801.28;5123355;28;20192;-69
2022/09/14 07:18:53;;;;;;;;;;;;;;;25.49;35.89;99792.25;5104572;28;19916;-69
2022/09/14 07:21:20;;;;;;;;;;;;;;;25.41;35.37;99793.53;5123415;28;19911;-69
2022/09/14 07:23:46;;;;;;;;;;;;;;;25.65;35.46;99784.00;5121978;28;19930;-69
2022/09/14 07:26:16;;;;;;;;;;;;;;;25.76;35.39;99787.59;5123189;28;20109;-68
2022/09/14 07:28:43;;;;;;;;;;;;;;;25.77;34.95;99784.63;5122781;28;20305;-69
2022/09/14 07:31:20;;;;;;;;;;;;;;;26.17;34.34;99780.56;5108366;28;20083;-68
2022/09/14 07:33:47;;;;;;;;;;;;;;;26.07;33.80;99775.09;5123499;28;19915;-69
2022/09/14 07:36:13;;;;;;;;;;;;;;;26.00;34.56;99774.47;5108050;28;19957;-69
2022/09/14 07:38:38;;;;;;;;;;;;;;;26.11;34.21;99770.75;5122163;28;20182;-68
2022/09/14 07:41:04;;;;;;;;;;;;;;;26.18;34.12;99770.53;5122233;28;20200;-69
2022/09/14 07:43:29;;;;;;;;;;;;;;;26.25;34.05;99761.06;5123768;28;20197;-69
2022/09/14 07:45:55;;;;;;;;;;;;;;;26.37;33.95;99758.97;5104518;28;19930;-69
2022/09/14 07:48:22;;;;;;;;;;;;;;;26.48;33.34;99750.88;5123330;28;19920;-69
2022/09/14 07:50:47;;;;;;;;;;;;;;;26.75;33.24;99759.63;5123271;28;19976;-69
2022/09/14 07:53:13;;;;;;;;;;;;;;;26.23;33.34;99736.09;5121483;28;19916;-69
2022/09/14 07:55:39;;;;;;;;;;;;;;;26.54;33.49;99763.38;5122617;28;19983;-69
2022/09/14 07:58:05;;;;;;;;;;;;;;;26.60;33.16;99749.56;5120693;28;19960;-68
2022/09/14 08:00:30;;;;;;;;;;;;;;;26.87;32.56;99753.97;5122911;28;19919;-69
2022/09/14 08:02:56;;;;;;;;;;;;;;;27.13;31.74;99746.72;5122732;28;19965;-68
2022/09/14 08:05:22;;;;;;;;;;;;;;;27.15;31.72;99758.13;5122987;28;19988;-69
2022/09/14 08:07:52;;;;;;;;;;;;;;;27.43;31.15;99751.34;5122274;28;19915;-68
2022/09/14 08:10:17;;;;;;;;;;;;;;;27.39;30.72;99750.25;5106595;28;20157;-69
2022/09/14 08:12:42;;;;;;;;;;;;;;;27.33;30.49;99746.72;5122079;28;20090;-68
2022/09/14 08:15:08;;;;;;;;;;;;;;;27.08;31.42;99747.53;5121703;28;20267;-69
2022/09/14 08:17:33;;;;;;;;;;;;;;;26.95;31.41;99748.81;5122993;28;20113;-69
2022/09/14 08:19:59;;;;;;;;;;;;;;;26.82;32.91;99756.66;5122837;28;19915;-68
2022/09/14 08:22:24;;;;;;;;;;;;;;;27.13;31.92;99750.25;5122563;28;19935;-69
2022/09/14 08:24:50;;;;;;;;;;;;;;;27.31;31.78;99743.47;5122260;28;19912;-69
2022/09/14 08:27:15;;;;;;;;;;;;;;;27.03;31.30;99751.03;5121490;28;19970;-69
2022/09/14 08:29:40;;;;;;;;;;;;;;;27.01;31.35;99747.78;5121638;28;19919;-69
2022/09/14 08:32:05;;;;;;;;;;;;;;;27.27;30.75;99742.38;5120462;28;19920;-69
2022/09/14 08:34:31;;;;;;;;;;;;;;;27.34;30.94;99745.66;5121520;28;19915;-69
2022/09/14 08:36:56;;;;;;;;;;;;;;;27.61;30.43;99737.22;5121514;28;19972;-69
2022/09/14 08:39:21;;;;;;;;;;;;;;;27.84;30.94;99736.63;5122064;28;20109;-69
2022/09/14 08:41:47;;;;;;;;;;;;;;;27.82;30.63;99732.56;5122748;28;19912;-69
2022/09/14 08:44:12;;;;;;;;;;;;;;;27.89;30.58;99738.53;5121692;28;19923;-69
2022/09/14 08:46:39;;;;;;;;;;;;;;;27.91;29.59;99734.44;5121801;28;20153;-68
2022/09/14 08:49:10;;;;;;;;;;;;;;;27.87;30.29;99732.56;5114145;28;20087;-69
2022/09/14 08:51:35;;;;;;;;;;;;;;;27.83;30.45;99726.03;5114409;28;20105;-68
2022/09/14 08:54:00;;;;;;;;;;;;;;;28.03;30.17;99722.44;5119245;28;19926;-68
2022/09/14 08:56:33;;;;;;;;;;;;;;;28.03;29.08;99728.69;5122419;28;19912;-68
2022/09/14 08:59:08;;;;;;;;;;;;;;;27.96;29.25;99718.09;5121658;28;19918;-69
2022/09/14 09:01:45;;;;;;;;;;;;;;;28.18;29.30;99715.06;5105762;28;19919;-68
2022/09/14 09:04:18;;;;;;;;;;;;;;;28.10;29.33;99718.34;5114668;28;19919;-68
2022/09/14 09:07:07;;;;;;;;;;;;;;;27.64;30.91;99712.19;5099934;28;20101;-69
2022/09/14 09:09:38;;;;;;;;;;;;;;;27.83;29.18;99709.69;5104282;28;20246;-69
2022/09/14 09:12:04;;;;;;;;;;;;;;;27.76;29.25;99718.16;5120668;28;19919;-68
2022/09/14 09:14:39;;;;;;;;;;;;;;;27.65;30.13;99711.91;5121458;28;19922;-69
2022/09/14 09:17:13;;;;;;;;;;;;;;;27.72;29.44;99706.19;5120440;28;19959;-69
2022/09/14 09:19:50;;;;;;;;;;;;;;;27.79;29.11;99698.56;5121325;28;19931;-68
2022/09/14 09:22:19;;;;;;;;;;;;;;;27.78;29.42;99693.38;5120070;28;19918;-69
2022/09/14 09:24:47;;;;;;;;;;;;;;;27.79;29.71;99689.59;5121195;28;19922;-69
2022/09/14 09:27:14;;;;;;;;;;;;;;;28.15;28.65;99696.56;5120829;28;19911;-68
2022/09/14 09:29:39;;;;;;;;;;;;;;;28.29;28.26;99692.16;5121612;28;19980;-69
2022/09/14 09:32:07;;;;;;;;;;;;;;;27.79;29.41;99684.13;5121456;28;19916;-69
2022/09/14 09:34:32;;;;;;;;;;;;;;;27.84;28.72;99686.84;5121379;28;19947;-69
2022/09/14 09:36:59;;;;;;;;;;;;;;;27.37;29.19;99684.47;5120577;28;19919;-69
2022/09/14 09:39:25;;;;;;;;;;;;;;;27.53;28.83;99681.44;5120961;28;19920;-69
2022/09/14 09:41:59;;;;;;;;;;;;;;;27.49;29.67;99677.66;5121115;28;19911;-69
2022/09/14 09:44:24;;;;;;;;;;;;;;;27.87;28.95;99669.97;5105806;28;20094;-69
2022/09/14 09:46:52;;;;;;;;;;;;;;;27.85;29.10;99666.72;5120792;28;19919;-69
2022/09/14 09:49:20;;;;;;;;;;;;;;;27.75;29.37;99662.13;5119187;28;19923;-69
2022/09/14 09:51:46;;;;;;;;;;;;;;;27.35;30.03;99666.53;5120555;28;20218;-69
2022/09/14 09:54:11;;;;;;;;;;;;;;;27.31;29.80;99662.72;5107332;28;19953;-68
2022/09/14 09:56:39;;;;;;;;;;;;;;;27.45;29.26;99657.53;5121697;28;19933;-69
2022/09/14 09:59:23;;;;;;;;;;;;;;;27.58;28.96;99653.44;5088951;28;19916;-69
2022/09/14 10:01:49;;;;;;;;;;;;;;;27.47;29.52;99657.25;5121232;28;20600;-69
2022/09/14 10:04:19;;;;;;;;;;;;;;;27.34;30.26;99656.75;5122955;28;20198;-69
2022/09/14 10:06:45;;;;;;;;;;;;;;;27.21;30.54;99648.31;5124942;28;19911;-69
2022/09/14 10:09:19;;;;;;;;;;;;;;;27.47;29.88;99646.38;5111344;28;19928;-69
2022/09/14 10:11:45;;;;;;;;;;;;;;;27.39;30.36;99644.22;5092338;28;19912;-69
2022/09/14 10:14:20;;;;;;;;;;;;;;;27.48;30.77;99646.09;5101011;28;19926;-69
2022/09/14 10:16:46;;;;;;;;;;;;;;;27.57;29.48;99644.44;5079080;28;20037;-69
2022/09/14 10:19:13;;;;;;;;;;;;;;;27.63;28.90;99646.09;5100420;28;19934;-69
2022/09/14 10:21:58;;;;;;;;;;;;;;;27.74;28.30;99638.72;5082264;28;19924;-68
2022/09/14 10:24:23;;;;;;;;;;;;;;;27.33;29.57;99638.78;5099967;28;20254;-68
2022/09/14 10:26:49;;;;;;;;;;;;;;;27.19;30.13;99637.72;5100867;28;19982;-69
2022/09/14 10:29:18;;;;;;;;;;;;;;;27.12;29.42;99634.47;5101215;28;19916;-69
2022/09/14 10:31:45;;;;;;;;;;;;;;;27.18;29.37;99643.44;5101685;28;19912;-69
2022/09/14 10:34:16;;;;;;;;;;;;;;;27.22;30.05;99637.19;5100724;28;19932;-68
2022/09/14 10:36:46;;;;;;;;;;;;;;;27.22;29.43;99641.81;5100847;28;20136;-69
2022/09/14 10:39:18;;;;;;;;;;;;;;;27.60;28.44;99637.66;5081792;28;20008;-69
2022/09/14 10:41:47;;;;;;;;;;;;;;;27.27;29.44;99642.59;5099957;28;20221;-69
2022/09/14 10:44:31;;;;;;;;;;;;;;;27.43;29.09;99626.28;5099176;28;19922;-69
2022/09/14 10:47:14;;;;;;;;;;;;;;;27.23;29.57;99622.50;5099349;28;19912;-69
2022/09/14 10:49:49;;;;;;;;;;;;;;;27.28;29.07;99617.06;5099102;28;19916;-69
2022/09/14 10:52:34;;;;;;;;;;;;;;;27.35;29.71;99611.34;5098538;28;19973;-69
2022/09/14 10:55:06;;;;;;;;;;;;;;;27.19;29.32;99612.44;5098676;28;19984;-69
2022/09/14 10:57:49;;;;;;;;;;;;;;;27.41;28.63;99607.50;5100597;28;20125;-69
2022/09/14 11:00:17;;;;;;;;;;;;;;;27.53;29.17;99605.31;5100275;28;19924;-69
2022/09/14 11:02:45;;;;;;;;;;;;;;;27.49;29.14;99606.94;5100378;28;20164;-69
2022/09/14 11:05:26;;;;;;;;;;;;;;;27.51;29.16;99602.03;5099546;28;19976;-69
2022/09/14 11:07:51;;;;;;;;;;;;;;;27.69;29.13;99597.13;5098504;28;20228;-69
2022/09/14 11:10:22;;;;;;;;;;;;;;;27.70;29.30;99601.47;5099670;28;19912;-69
2022/09/14 11:12:54;;;;;;;;;;;;;;;27.65;28.33;99594.94;5100181;28;20255;-69
2022/09/14 11:15:34;;;;;;;;;;;;;;;27.97;28.66;99591.00;5098882;28;19926;-67
2022/09/14 11:18:09;;;;;;;;;;;;;;;28.25;28.37;99579.47;5099054;28;19912;-69
2022/09/14 11:20:41;;;;;;;;;;;;;;;28.11;28.71;99588.50;5099202;28;19930;-67
2022/09/14 11:23:06;;;;;;;;;;;;;;;27.97;28.48;99585.56;5098168;28;19916;-66
2022/09/14 11:25:41;;;;;;;;;;;;;;;28.15;28.42;99582.22;5099700;28;20206;-66
2022/09/14 11:28:10;;;;;;;;;;;;;;;28.20;28.45;99576.75;5100616;28;19960;-69
2022/09/14 11:30:47;;;;;;;;;;;;;;;27.98;28.21;99568.13;5100085;28;19911;-69
2022/09/14 11:33:18;;;;;;;;;;;;;;;27.97;27.67;99569.22;5099353;28;19959;-69
2022/09/14 11:35:53;;;;;;;;;;;;;;;28.05;27.84;99565.09;5099131;28;19916;-69
2022/09/14 11:38:19;;;;;;;;;;;;;;;28.02;28.62;99554.78;5099455;28;20132;-69
2022/09/14 11:40:47;;;;;;;;;;;;;;;28.13;28.65;99557.19;5098997;28;19927;-69
2022/09/14 11:43:20;;;;;;;;;;;;;;;28.20;28.14;99560.41;5099228;28;19924;-69
2022/09/14 11:45:45;;;;;;;;;;;;;;;28.34;28.34;99549.72;5099636;28;19920;-67
2022/09/14 11:48:16;;;;;;;;;;;;;;;28.39;28.37;99549.69;5098354;28;20279;-69
2022/09/14 11:50:42;;;;;;;;;;;;;;;28.01;27.69;99551.25;5098529;28;19912;-68
2022/09/14 11:53:08;;;;;;;;;;;;;;;27.83;28.01;99543.72;5099781;28;19924;-68
2022/09/14 11:55:33;;;;;;;;;;;;;;;27.84;29.02;99545.34;5098629;28;20121;-69
2022/09/14 11:57:59;;;;;;;;;;;;;;;28.05;28.31;99546.06;5098821;28;19920;-68
2022/09/14 12:00:29;;;;;;;;;;;;;;;28.10;27.72;99538.69;5099701;28;19927;-69
2022/09/14 12:02:54;;;;;;;;;;;;;;;28.07;27.33;99543.88;5098146;28;19931;-69
2022/09/14 12:05:25;;;;;;;;;;;;;;;27.97;27.37;99537.38;5080216;28;19912;-69
2022/09/14 12:07:54;;;;;;;;;;;;;;;27.89;27.53;99535.25;5098468;28;20095;-69
2022/09/14 12:10:20;;;;;;;;;;;;;;;27.95;27.51;99527.88;5099217;28;19971;-67
2022/09/14 12:13:04;;;;;;;;;;;;;;;27.79;27.15;99523.63;5098288;28;20185;-67
2022/09/14 12:15:29;;;;;;;;;;;;;;;27.90;27.83;99517.84;5098208;28;19911;-67
2022/09/14 12:18:04;;;;;;;;;;;;;;;27.71;29.46;99511.41;5098275;28;19926;-68
2022/09/14 12:20:51;;;;;;;;;;;;;;;27.74;28.71;99501.88;5097733;28;20124;-68
2022/09/14 12:23:32;;;;;;;;;;;;;;;27.64;27.95;99497.31;5097602;28;19930;-67
2022/09/14 12:26:03;;;;;;;;;;;;;;;27.72;27.76;99493.19;5097375;28;19916;-67
2022/09/14 12:28:29;;;;;;;;;;;;;;;27.74;28.14;99491.00;5097936;28;19924;-67
2022/09/14 12:30:54;;;;;;;;;;;;;;;27.73;28.56;99481.22;5097895;28;20166;-67
2022/09/14 12:33:33;;;;;;;;;;;;;;;27.74;28.49;99483.66;5099681;28;20166;-67
2022/09/14 12:36:11;;;;;;;;;;;;;;;27.87;28.08;99490.38;5098983;28;20232;-68
2022/09/14 12:38:36;;;;;;;;;;;;;;;27.79;28.76;99488.25;5098966;28;19915;-67
2022/09/14 12:41:14;;;;;;;;;;;;;;;27.85;28.01;99492.56;5096172;28;19943;-67
2022/09/14 12:43:48;;;;;;;;;;;;;;;27.89;27.17;99489.00;5096408;28;19939;-67
2022/09/14 12:46:19;;;;;;;;;;;;;;;27.91;27.21;99484.09;5096613;28;19912;-67
2022/09/14 12:48:47;;;;;;;;;;;;;;;28.15;26.89;99489.66;5098030;28;19916;-67
2022/09/14 12:51:18;;;;;;;;;;;;;;;28.13;26.94;99499.22;5098664;28;19928;-67
2022/09/14 12:53:47;;;;;;;;;;;;;;;28.14;26.93;99498.94;5097177;28;19916;-67